Terminal Aerodrome Forecast
Issued by NWS

Home | Current Version | Previous Version | Text Only | Print | Product List | Glossary On
Versions: 1 2 3 4 5 6 7 8 9 10 11 12 13 14 15 16 17
000
FTPA31 PHFO 231741
TAFHLI
TAF
PHLI 231741Z 2318/2418 04020KT P6SM VCSH FEW010 SCT020 BKN045=

USA.gov is the U.S. government's official web portal to all federal, state and local government web resources and services.